sensor_id;sensor_type;location;lat;lon;timestamp;pressure;altitude;pressure_sealevel;temperature;humidity
77823;BME280;67013;49.730;17.292;2023-04-03T00:01:40;98822.70;;;4.40;66.93
77823;BME280;67013;49.730;17.292;2023-04-03T00:04:10;98829.66;;;4.38;67.21
77823;BME280;67013;49.730;17.292;2023-04-03T00:06:39;98825.49;;;4.34;66.67
77823;BME280;67013;49.730;17.292;2023-04-03T00:09:08;98823.26;;;4.30;66.71
77823;BME280;67013;49.730;17.292;2023-04-03T00:11:38;98823.31;;;4.29;67.10
77823;BME280;67013;49.730;17.292;2023-04-03T00:14:07;98822.73;;;4.27;66.95
77823;BME280;67013;49.730;17.292;2023-04-03T00:16:37;98819.33;;;4.25;67.07
77823;BME280;67013;49.730;17.292;2023-04-03T00:19:06;98822.92;;;4.25;67.16
77823;BME280;67013;49.730;17.292;2023-04-03T00:21:37;98821.90;;;4.30;67.18
77823;BME280;67013;49.730;17.292;2023-04-03T00:24:07;98822.57;;;4.34;66.88
77823;BME280;67013;49.730;17.292;2023-04-03T00:26:37;98824.86;;;4.37;67.04
77823;BME280;67013;49.730;17.292;2023-04-03T00:29:06;98823.84;;;4.37;67.17
77823;BME280;67013;49.730;17.292;2023-04-03T00:31:35;98827.98;;;4.37;67.06
77823;BME280;67013;49.730;17.292;2023-04-03T00:34:05;98824.95;;;4.35;66.66
77823;BME280;67013;49.730;17.292;2023-04-03T00:36:34;98825.46;;;4.35;67.14
77823;BME280;67013;49.730;17.292;2023-04-03T00:39:04;98821.45;;;4.32;66.73
77823;BME280;67013;49.730;17.292;2023-04-03T00:41:33;98821.69;;;4.26;66.47
77823;BME280;67013;49.730;17.292;2023-04-03T00:45:19;98819.50;;;4.20;66.45
77823;BME280;67013;49.730;17.292;2023-04-03T00:47:15;98818.61;;;4.17;66.37
77823;BME280;67013;49.730;17.292;2023-04-03T00:49:46;98817.92;;;4.17;66.56
77823;BME280;67013;49.730;17.292;2023-04-03T00:52:17;98816.04;;;4.16;66.31
77823;BME280;67013;49.730;17.292;2023-04-03T00:54:50;98818.77;;;4.17;66.46
77823;BME280;67013;49.730;17.292;2023-04-03T00:57:21;98813.27;;;4.17;66.23
77823;BME280;67013;49.730;17.292;2023-04-03T00:59:54;98816.67;;;4.14;65.86
77823;BME280;67013;49.730;17.292;2023-04-03T01:02:25;98821.77;;;4.12;66.28
77823;BME280;67013;49.730;17.292;2023-04-03T01:04:54;98821.01;;;4.09;66.12
77823;BME280;67013;49.730;17.292;2023-04-03T01:07:25;98819.13;;;4.09;66.21
77823;BME280;67013;49.730;17.292;2023-04-03T01:09:56;98821.20;;;4.08;66.50
77823;BME280;67013;49.730;17.292;2023-04-03T01:12:28;98823.89;;;4.05;66.27
77823;BME280;67013;49.730;17.292;2023-04-03T01:14:59;98823.50;;;4.02;66.14
77823;BME280;67013;49.730;17.292;2023-04-03T01:17:33;98828.31;;;3.99;65.76
77823;BME280;67013;49.730;17.292;2023-04-03T01:20:36;98825.58;;;3.98;65.69
77823;BME280;67013;49.730;17.292;2023-04-03T01:23:22;98829.84;;;3.99;65.65
77823;BME280;67013;49.730;17.292;2023-04-03T01:25:56;98831.39;;;3.99;65.94
77823;BME280;67013;49.730;17.292;2023-04-03T01:28:27;98838.23;;;4.00;65.84
77823;BME280;67013;49.730;17.292;2023-04-03T01:31:02;98835.80;;;4.01;65.77
77823;BME280;67013;49.730;17.292;2023-04-03T01:33:38;98839.99;;;3.99;66.15
77823;BME280;67013;49.730;17.292;2023-04-03T01:36:09;98840.89;;;3.98;66.09
77823;BME280;67013;49.730;17.292;2023-04-03T01:38:39;98838.52;;;3.97;65.89
77823;BME280;67013;49.730;17.292;2023-04-03T01:41:08;98839.78;;;3.96;65.65
77823;BME280;67013;49.730;17.292;2023-04-03T01:43:38;98843.31;;;3.93;65.33
77823;BME280;67013;49.730;17.292;2023-04-03T01:46:08;98840.75;;;3.88;64.88
77823;BME280;67013;49.730;17.292;2023-04-03T01:48:37;98846.31;;;3.83;64.48
77823;BME280;67013;49.730;17.292;2023-04-03T01:51:07;98844.35;;;3.80;64.49
77823;BME280;67013;49.730;17.292;2023-04-03T01:53:36;98845.11;;;3.78;64.50
77823;BME280;67013;49.730;17.292;2023-04-03T01:56:07;98848.48;;;3.75;64.39
77823;BME280;67013;49.730;17.292;2023-04-03T01:58:36;98849.79;;;3.72;64.40
77823;BME280;67013;49.730;17.292;2023-04-03T02:01:06;98851.06;;;3.71;64.51
77823;BME280;67013;49.730;17.292;2023-04-03T02:03:36;98851.50;;;3.69;64.62
77823;BME280;67013;49.730;17.292;2023-04-03T02:06:06;98849.31;;;3.67;64.73
77823;BME280;67013;49.730;17.292;2023-04-03T02:08:36;98849.05;;;3.65;64.23
77823;BME280;67013;49.730;17.292;2023-04-03T02:11:06;98851.18;;;3.63;64.28
77823;BME280;67013;49.730;17.292;2023-04-03T02:13:35;98853.70;;;3.60;64.32
77823;BME280;67013;49.730;17.292;2023-04-03T02:16:09;98858.02;;;3.59;64.60
77823;BME280;67013;49.730;17.292;2023-04-03T02:18:40;98856.61;;;3.60;64.38
77823;BME280;67013;49.730;17.292;2023-04-03T02:21:09;98855.39;;;3.61;64.41
77823;BME280;67013;49.730;17.292;2023-04-03T02:23:39;98856.88;;;3.58;64.00
77823;BME280;67013;49.730;17.292;2023-04-03T02:26:10;98858.77;;;3.53;64.07
77823;BME280;67013;49.730;17.292;2023-04-03T02:28:41;98857.96;;;3.51;64.02
77823;BME280;67013;49.730;17.292;2023-04-03T02:31:11;98861.65;;;3.54;63.95
77823;BME280;67013;49.730;17.292;2023-04-03T02:33:40;98857.13;;;3.56;63.88
77823;BME280;67013;49.730;17.292;2023-04-03T02:36:10;98861.91;;;3.57;64.04
77823;BME280;67013;49.730;17.292;2023-04-03T02:38:40;98861.03;;;3.57;63.68
77823;BME280;67013;49.730;17.292;2023-04-03T02:41:11;98856.41;;;3.57;63.65
77823;BME280;67013;49.730;17.292;2023-04-03T02:43:40;98855.95;;;3.55;63.93
77823;BME280;67013;49.730;17.292;2023-04-03T02:46:10;98859.08;;;3.54;63.94
77823;BME280;67013;49.730;17.292;2023-04-03T02:48:40;98861.52;;;3.53;63.98
77823;BME280;67013;49.730;17.292;2023-04-03T02:51:09;98862.35;;;3.49;64.15
77823;BME280;67013;49.730;17.292;2023-04-03T02:53:39;98866.58;;;3.46;64.19
77823;BME280;67013;49.730;17.292;2023-04-03T02:56:08;98864.64;;;3.42;64.08
77823;BME280;67013;49.730;17.292;2023-04-03T02:58:38;98866.85;;;3.39;64.10
77823;BME280;67013;49.730;17.292;2023-04-03T03:01:08;98868.37;;;3.35;63.96
77823;BME280;67013;49.730;17.292;2023-04-03T03:03:38;98871.20;;;3.33;64.19
77823;BME280;67013;49.730;17.292;2023-04-03T03:06:10;98869.41;;;3.29;64.09
77823;BME280;67013;49.730;17.292;2023-04-03T03:08:40;98872.93;;;3.27;64.05
77823;BME280;67013;49.730;17.292;2023-04-03T03:11:10;98872.14;;;3.26;63.67
77823;BME280;67013;49.730;17.292;2023-04-03T03:13:40;98871.48;;;3.26;64.05
77823;BME280;67013;49.730;17.292;2023-04-03T03:16:09;98870.55;;;3.22;63.93
77823;BME280;67013;49.730;17.292;2023-04-03T03:18:39;98867.74;;;3.19;63.78
77823;BME280;67013;49.730;17.292;2023-04-03T03:21:10;98869.41;;;3.15;63.83
77823;BME280;67013;49.730;17.292;2023-04-03T03:23:40;98876.29;;;3.10;64.11
77823;BME280;67013;49.730;17.292;2023-04-03T03:26:11;98877.63;;;3.06;64.06
77823;BME280;67013;49.730;17.292;2023-04-03T03:28:41;98882.42;;;3.02;64.07
77823;BME280;67013;49.730;17.292;2023-04-03T03:31:10;98883.78;;;2.98;64.02
77823;BME280;67013;49.730;17.292;2023-04-03T03:33:40;98882.58;;;2.93;64.04
77823;BME280;67013;49.730;17.292;2023-04-03T03:36:10;98884.48;;;2.87;64.23
77823;BME280;67013;49.730;17.292;2023-04-03T03:38:40;98883.29;;;2.82;64.18
77823;BME280;67013;49.730;17.292;2023-04-03T03:41:09;98891.61;;;2.79;64.20
77823;BME280;67013;49.730;17.292;2023-04-03T03:43:39;98890.61;;;2.79;64.10
77823;BME280;67013;49.730;17.292;2023-04-03T03:46:09;98896.66;;;2.77;63.82
77823;BME280;67013;49.730;17.292;2023-04-03T03:48:38;98896.04;;;2.75;63.81
77823;BME280;67013;49.730;17.292;2023-04-03T03:51:08;98899.21;;;2.73;63.54
77823;BME280;67013;49.730;17.292;2023-04-03T03:53:37;98900.23;;;2.68;63.65
77823;BME280;67013;49.730;17.292;2023-04-03T03:56:07;98902.59;;;2.64;63.83
77823;BME280;67013;49.730;17.292;2023-04-03T03:58:36;98903.67;;;2.62;63.89
77823;BME280;67013;49.730;17.292;2023-04-03T04:01:06;98898.20;;;2.62;64.16
77823;BME280;67013;49.730;17.292;2023-04-03T04:03:36;98902.69;;;2.61;64.29
77823;BME280;67013;49.730;17.292;2023-04-03T04:06:06;98899.25;;;2.61;64.34
77823;BME280;67013;49.730;17.292;2023-04-03T04:08:36;98901.54;;;2.60;64.43
77823;BME280;67013;49.730;17.292;2023-04-03T04:11:05;98902.67;;;2.56;64.42
77823;BME280;67013;49.730;17.292;2023-04-03T04:13:35;98901.26;;;2.52;64.69
77823;BME280;67013;49.730;17.292;2023-04-03T04:16:06;98905.95;;;2.51;64.77
77823;BME280;67013;49.730;17.292;2023-04-03T04:18:35;98908.90;;;2.50;64.66
77823;BME280;67013;49.730;17.292;2023-04-03T04:21:05;98912.82;;;2.51;64.47
77823;BME280;67013;49.730;17.292;2023-04-03T04:23:34;98913.36;;;2.50;64.40
77823;BME280;67013;49.730;17.292;2023-04-03T04:26:04;98918.98;;;2.45;64.40
77823;BME280;67013;49.730;17.292;2023-04-03T04:28:34;98919.41;;;2.43;64.61
77823;BME280;67013;49.730;17.292;2023-04-03T04:31:03;98927.55;;;2.40;64.45
77823;BME280;67013;49.730;17.292;2023-04-03T04:33:33;98926.45;;;2.37;64.59
77823;BME280;67013;49.730;17.292;2023-04-03T04:36:02;98931.17;;;2.34;64.56
77823;BME280;67013;49.730;17.292;2023-04-03T04:41:01;98940.58;;;2.30;64.29
77823;BME280;67013;49.730;17.292;2023-04-03T04:43:31;98944.23;;;2.28;64.24
77823;BME280;67013;49.730;17.292;2023-04-03T04:46:05;98953.56;;;2.26;64.22
77823;BME280;67013;49.730;17.292;2023-04-03T04:48:35;98953.96;;;2.24;64.34
77823;BME280;67013;49.730;17.292;2023-04-03T04:51:06;98952.92;;;2.24;64.28
77823;BME280;67013;49.730;17.292;2023-04-03T04:53:35;98954.80;;;2.25;64.06
77823;BME280;67013;49.730;17.292;2023-04-03T04:56:06;98956.67;;;2.25;64.07
77823;BME280;67013;49.730;17.292;2023-04-03T04:58:35;98959.02;;;2.28;64.17
77823;BME280;67013;49.730;17.292;2023-04-03T05:01:07;98961.84;;;2.31;63.92
77823;BME280;67013;49.730;17.292;2023-04-03T05:03:37;98966.67;;;2.35;63.90
77823;BME280;67013;49.730;17.292;2023-04-03T05:06:08;98969.57;;;2.41;63.81
77823;BME280;67013;49.730;17.292;2023-04-03T05:08:37;98970.94;;;2.41;63.44
77823;BME280;67013;49.730;17.292;2023-04-03T05:11:06;98970.09;;;2.41;63.23
77823;BME280;67013;49.730;17.292;2023-04-03T05:13:36;98975.36;;;2.43;63.46
77823;BME280;67013;49.730;17.292;2023-04-03T05:16:07;98978.86;;;2.46;63.55
77823;BME280;67013;49.730;17.292;2023-04-03T05:18:36;98979.46;;;2.49;63.69
77823;BME280;67013;49.730;17.292;2023-04-03T05:21:07;98978.16;;;2.52;63.55
77823;BME280;67013;49.730;17.292;2023-04-03T05:23:37;98983.75;;;2.54;63.54
77823;BME280;67013;49.730;17.292;2023-04-03T05:26:06;98984.94;;;2.55;63.21
77823;BME280;67013;49.730;17.292;2023-04-03T05:28:36;98991.25;;;2.52;62.91
77823;BME280;67013;49.730;17.292;2023-04-03T05:31:06;98991.98;;;2.50;62.96
77823;BME280;67013;49.730;17.292;2023-04-03T05:33:35;98994.23;;;2.49;62.77
77823;BME280;67013;49.730;17.292;2023-04-03T05:36:06;98996.84;;;2.48;62.79
77823;BME280;67013;49.730;17.292;2023-04-03T05:38:36;98998.62;;;2.52;62.75
77823;BME280;67013;49.730;17.292;2023-04-03T05:41:06;99001.00;;;2.58;62.81
77823;BME280;67013;49.730;17.292;2023-04-03T05:43:35;99001.63;;;2.65;62.66
77823;BME280;67013;49.730;17.292;2023-04-03T05:46:10;99002.19;;;2.69;62.15
77823;BME280;67013;49.730;17.292;2023-04-03T05:48:41;99002.78;;;2.72;62.23
77823;BME280;67013;49.730;17.292;2023-04-03T05:51:16;99004.56;;;2.86;61.86
77823;BME280;67013;49.730;17.292;2023-04-03T05:53:47;99012.19;;;3.21;61.95
77823;BME280;67013;49.730;17.292;2023-04-03T05:56:16;99010.14;;;3.86;60.77
77823;BME280;67013;49.730;17.292;2023-04-03T05:58:46;99010.75;;;4.07;59.84
77823;BME280;67013;49.730;17.292;2023-04-03T06:01:15;99014.30;;;4.17;59.31
77823;BME280;67013;49.730;17.292;2023-04-03T06:03:45;99017.09;;;4.26;58.31
77823;BME280;67013;49.730;17.292;2023-04-03T06:06:15;99015.54;;;4.26;57.55
77823;BME280;67013;49.730;17.292;2023-04-03T06:08:44;99016.80;;;4.24;57.55
77823;BME280;67013;49.730;17.292;2023-04-03T06:11:14;99019.46;;;4.28;57.38
77823;BME280;67013;49.730;17.292;2023-04-03T06:13:45;99021.63;;;4.38;56.37
77823;BME280;67013;49.730;17.292;2023-04-03T06:16:16;99024.33;;;4.62;55.51
77823;BME280;67013;49.730;17.292;2023-04-03T06:18:46;99022.15;;;4.74;55.68
77823;BME280;67013;49.730;17.292;2023-04-03T06:21:15;99027.89;;;4.86;55.65
77823;BME280;67013;49.730;17.292;2023-04-03T06:23:45;99030.02;;;5.19;55.07
77823;BME280;67013;49.730;17.292;2023-04-03T06:26:14;99028.86;;;5.46;55.00
77823;BME280;67013;49.730;17.292;2023-04-03T06:28:44;99030.86;;;5.96;54.71
77823;BME280;67013;49.730;17.292;2023-04-03T06:31:13;99027.69;;;6.63;53.30
77823;BME280;67013;49.730;17.292;2023-04-03T06:33:43;99028.80;;;6.94;51.86
77823;BME280;67013;49.730;17.292;2023-04-03T06:36:13;99026.69;;;7.16;50.84
77823;BME280;67013;49.730;17.292;2023-04-03T06:38:43;99021.88;;;7.54;49.85
77823;BME280;67013;49.730;17.292;2023-04-03T06:41:13;99024.52;;;7.83;49.18
77823;BME280;67013;49.730;17.292;2023-04-03T06:43:42;99018.23;;;7.98;48.99
77823;BME280;67013;49.730;17.292;2023-04-03T06:46:16;99028.86;;;8.20;47.76
77823;BME280;67013;49.730;17.292;2023-04-03T06:48:47;99025.86;;;8.50;47.71
77823;BME280;67013;49.730;17.292;2023-04-03T06:51:21;99027.95;;;8.84;46.42
77823;BME280;67013;49.730;17.292;2023-04-03T06:53:53;99029.77;;;9.23;46.68
77823;BME280;67013;49.730;17.292;2023-04-03T06:56:23;99031.63;;;9.71;46.57
77823;BME280;67013;49.730;17.292;2023-04-03T06:58:53;99033.21;;;10.03;44.51
77823;BME280;67013;49.730;17.292;2023-04-03T07:01:26;99032.76;;;10.22;43.92
77823;BME280;67013;49.730;17.292;2023-04-03T07:03:57;99032.10;;;10.39;43.21
77823;BME280;67013;49.730;17.292;2023-04-03T07:06:26;99021.48;;;10.61;43.05
77823;BME280;67013;49.730;17.292;2023-04-03T07:08:56;99036.09;;;10.86;42.69
77823;BME280;67013;49.730;17.292;2023-04-03T07:11:26;99031.52;;;11.13;41.83
77823;BME280;67013;49.730;17.292;2023-04-03T07:13:56;99038.35;;;11.37;40.39
77823;BME280;67013;49.730;17.292;2023-04-03T07:16:26;99040.10;;;11.37;40.07
77823;BME280;67013;49.730;17.292;2023-04-03T07:18:55;99045.23;;;11.36;40.19
77823;BME280;67013;49.730;17.292;2023-04-03T07:21:25;99044.88;;;11.54;39.64
77823;BME280;67013;49.730;17.292;2023-04-03T07:23:55;99048.20;;;11.72;39.90
77823;BME280;67013;49.730;17.292;2023-04-03T07:26:24;99057.73;;;11.88;39.53
77823;BME280;67013;49.730;17.292;2023-04-03T07:28:53;99059.33;;;11.96;38.41
77823;BME280;67013;49.730;17.292;2023-04-03T07:31:23;99057.37;;;11.89;38.37
77823;BME280;67013;49.730;17.292;2023-04-03T07:33:52;99063.60;;;11.89;37.88
77823;BME280;67013;49.730;17.292;2023-04-03T07:36:23;99065.05;;;11.81;37.94
77823;BME280;67013;49.730;17.292;2023-04-03T07:38:53;99062.05;;;11.63;37.08
77823;BME280;67013;49.730;17.292;2023-04-03T07:41:22;99056.78;;;11.32;37.32
77823;BME280;67013;49.730;17.292;2023-04-03T07:43:52;99049.75;;;11.22;37.34
77823;BME280;67013;49.730;17.292;2023-04-03T07:46:24;99049.85;;;11.10;37.54
77823;BME280;67013;49.730;17.292;2023-04-03T07:48:54;99048.39;;;11.00;37.48
77823;BME280;67013;49.730;17.292;2023-04-03T07:51:23;99046.38;;;10.85;37.48
77823;BME280;67013;49.730;17.292;2023-04-03T07:53:54;99051.84;;;10.71;38.04
77823;BME280;67013;49.730;17.292;2023-04-03T07:56:23;99050.70;;;10.67;37.33
77823;BME280;67013;49.730;17.292;2023-04-03T07:58:53;99049.84;;;10.61;37.29
77823;BME280;67013;49.730;17.292;2023-04-03T08:01:22;99053.52;;;10.47;37.09
77823;BME280;67013;49.730;17.292;2023-04-03T08:03:52;99054.50;;;10.31;37.55
77823;BME280;67013;49.730;17.292;2023-04-03T08:06:21;99056.58;;;10.22;37.61
77823;BME280;67013;49.730;17.292;2023-04-03T08:08:51;99055.14;;;10.40;39.22
77823;BME280;67013;49.730;17.292;2023-04-03T08:11:20;99056.09;;;10.50;39.12
77823;BME280;67013;49.730;17.292;2023-04-03T08:13:51;99054.99;;;10.53;39.50
77823;BME280;67013;49.730;17.292;2023-04-03T08:16:23;99055.91;;;10.58;39.19
77823;BME280;67013;49.730;17.292;2023-04-03T08:18:55;99060.83;;;10.49;38.88
77823;BME280;67013;49.730;17.292;2023-04-03T08:21:24;99060.02;;;10.45;38.69
77823;BME280;67013;49.730;17.292;2023-04-03T08:23:54;99057.50;;;10.47;39.23
77823;BME280;67013;49.730;17.292;2023-04-03T08:26:24;99061.17;;;10.52;39.17
77823;BME280;67013;49.730;17.292;2023-04-03T08:28:54;99059.67;;;10.60;39.25
77823;BME280;67013;49.730;17.292;2023-04-03T08:31:24;99050.50;;;10.76;38.71
77823;BME280;67013;49.730;17.292;2023-04-03T08:33:53;99057.75;;;10.87;38.31
77823;BME280;67013;49.730;17.292;2023-04-03T08:36:24;99055.42;;;10.91;37.45
77823;BME280;67013;49.730;17.292;2023-04-03T08:38:55;99055.47;;;10.82;35.97
77823;BME280;67013;49.730;17.292;2023-04-03T08:41:32;99055.23;;;10.67;37.08
77823;BME280;67013;49.730;17.292;2023-04-03T08:44:14;99057.17;;;10.72;37.99
77823;BME280;67013;49.730;17.292;2023-04-03T08:47:01;99055.89;;;10.84;37.78
77823;BME280;67013;49.730;17.292;2023-04-03T08:49:35;99059.52;;;11.03;38.48
77823;BME280;67013;49.730;17.292;2023-04-03T08:52:11;99065.86;;;11.23;38.23
77823;BME280;67013;49.730;17.292;2023-04-03T08:54:51;99066.75;;;11.47;37.82
77823;BME280;67013;49.730;17.292;2023-04-03T08:57:30;99074.19;;;11.74;37.86
77823;BME280;67013;49.730;17.292;2023-04-03T09:00:03;99072.73;;;11.91;37.34
77823;BME280;67013;49.730;17.292;2023-04-03T09:02:38;99074.16;;;11.90;36.87
77823;BME280;67013;49.730;17.292;2023-04-03T09:05:14;99081.46;;;11.83;36.79
77823;BME280;67013;49.730;17.292;2023-04-03T09:07:47;99080.34;;;11.71;36.61
77823;BME280;67013;49.730;17.292;2023-04-03T09:10:24;99078.75;;;11.53;37.12
77823;BME280;67013;49.730;17.292;2023-04-03T09:13:01;99084.21;;;11.36;36.90
77823;BME280;67013;49.730;17.292;2023-04-03T09:15:35;99080.46;;;11.21;37.27
77823;BME280;67013;49.730;17.292;2023-04-03T09:18:08;99085.84;;;11.16;37.48
77823;BME280;67013;49.730;17.292;2023-04-03T09:20:48;99085.44;;;11.03;37.14
77823;BME280;67013;49.730;17.292;2023-04-03T09:23:28;99097.58;;;10.82;37.01
77823;BME280;67013;49.730;17.292;2023-04-03T09:26:04;99098.70;;;10.64;37.42
77823;BME280;67013;49.730;17.292;2023-04-03T09:28:37;99099.77;;;10.61;37.35
77823;BME280;67013;49.730;17.292;2023-04-03T09:31:16;99095.20;;;10.53;37.13
77823;BME280;67013;49.730;17.292;2023-04-03T09:33:48;99096.29;;;10.52;37.32
77823;BME280;67013;49.730;17.292;2023-04-03T09:36:38;99102.95;;;10.40;37.02
77823;BME280;67013;49.730;17.292;2023-04-03T09:39:12;99103.27;;;10.20;37.14
77823;BME280;67013;49.730;17.292;2023-04-03T09:41:43;99104.64;;;10.06;37.07
77823;BME280;67013;49.730;17.292;2023-04-03T09:44:25;99109.35;;;9.94;37.15
77823;BME280;67013;49.730;17.292;2023-04-03T09:46:55;99109.68;;;9.76;37.01
77823;BME280;67013;49.730;17.292;2023-04-03T09:49:24;99108.14;;;9.58;37.17
77823;BME280;67013;49.730;17.292;2023-04-03T09:51:54;99102.84;;;9.65;37.51
77823;BME280;67013;49.730;17.292;2023-04-03T09:54:32;99104.23;;;9.68;37.30
77823;BME280;67013;49.730;17.292;2023-04-03T09:57:08;99102.89;;;9.76;37.70
77823;BME280;67013;49.730;17.292;2023-04-03T09:59:44;99103.11;;;9.91;37.76
77823;BME280;67013;49.730;17.292;2023-04-03T10:02:30;99106.04;;;10.00;37.65
77823;BME280;67013;49.730;17.292;2023-04-03T10:05:01;99102.40;;;10.11;37.17
77823;BME280;67013;49.730;17.292;2023-04-03T10:07:34;99104.16;;;10.08;36.90
77823;BME280;67013;49.730;17.292;2023-04-03T10:10:19;99105.09;;;9.98;36.42
77823;BME280;67013;49.730;17.292;2023-04-03T10:13:05;99108.08;;;9.80;36.41
77823;BME280;67013;49.730;17.292;2023-04-03T10:15:40;99104.42;;;9.62;36.20
77823;BME280;67013;49.730;17.292;2023-04-03T10:18:29;99108.55;;;9.29;35.69
77823;BME280;67013;49.730;17.292;2023-04-03T10:21:07;99106.10;;;9.05;37.52
77823;BME280;67013;49.730;17.292;2023-04-03T10:23:44;99110.98;;;8.89;37.84
77823;BME280;67013;49.730;17.292;2023-04-03T10:26:21;99118.41;;;8.73;37.92
77823;BME280;67013;49.730;17.292;2023-04-03T10:29:00;99114.11;;;8.56;37.75
77823;BME280;67013;49.730;17.292;2023-04-03T10:31:40;99115.86;;;8.36;37.89
77823;BME280;67013;49.730;17.292;2023-04-03T10:34:17;99112.65;;;8.14;37.85
77823;BME280;67013;49.730;17.292;2023-04-03T10:36:57;99115.11;;;7.93;38.40
77823;BME280;67013;49.730;17.292;2023-04-03T10:39:34;99113.05;;;7.75;38.48
77823;BME280;67013;49.730;17.292;2023-04-03T10:42:11;99114.62;;;7.61;38.33
77823;BME280;67013;49.730;17.292;2023-04-03T10:44:54;99108.70;;;7.48;38.41
77823;BME280;67013;49.730;17.292;2023-04-03T10:47:32;99106.66;;;7.40;38.68
77823;BME280;67013;49.730;17.292;2023-04-03T10:50:15;99110.92;;;7.31;38.64
77823;BME280;67013;49.730;17.292;2023-04-03T10:52:58;99111.84;;;7.15;38.88
77823;BME280;67013;49.730;17.292;2023-04-03T10:55:36;99111.61;;;7.01;39.66
77823;BME280;67013;49.730;17.292;2023-04-03T10:58:08;99111.22;;;6.92;40.18
77823;BME280;67013;49.730;17.292;2023-04-03T11:00:47;99112.41;;;6.81;40.72
77823;BME280;67013;49.730;17.292;2023-04-03T11:03:27;99104.29;;;6.69;40.98
77823;BME280;67013;49.730;17.292;2023-04-03T11:06:01;99103.77;;;6.62;41.15
77823;BME280;67013;49.730;17.292;2023-04-03T11:08:32;99105.84;;;6.58;40.71
77823;BME280;67013;49.730;17.292;2023-04-03T11:11:08;99107.69;;;6.59;41.05
77823;BME280;67013;49.730;17.292;2023-04-03T11:13:42;99107.66;;;6.60;40.42
77823;BME280;67013;49.730;17.292;2023-04-03T11:16:20;99108.87;;;6.52;40.83
77823;BME280;67013;49.730;17.292;2023-04-03T11:18:54;99107.33;;;6.52;41.56
77823;BME280;67013;49.730;17.292;2023-04-03T11:21:29;99101.58;;;6.61;41.74
77823;BME280;67013;49.730;17.292;2023-04-03T11:24:05;99099.23;;;6.70;41.97
77823;BME280;67013;49.730;17.292;2023-04-03T11:26:40;99092.77;;;6.83;42.43
77823;BME280;67013;49.730;17.292;2023-04-03T11:29:14;99090.75;;;6.93;42.46
77823;BME280;67013;49.730;17.292;2023-04-03T11:32:00;99096.20;;;7.02;42.35
77823;BME280;67013;49.730;17.292;2023-04-03T11:34:36;99094.73;;;7.07;41.41
77823;BME280;67013;49.730;17.292;2023-04-03T11:37:15;99094.35;;;7.15;40.55
77823;BME280;67013;49.730;17.292;2023-04-03T11:39:53;99092.60;;;7.24;39.85
77823;BME280;67013;49.730;17.292;2023-04-03T11:42:33;99090.44;;;7.43;39.66
77823;BME280;67013;49.730;17.292;2023-04-03T11:45:27;99087.20;;;7.49;37.68
77823;BME280;67013;49.730;17.292;2023-04-03T11:48:29;99083.27;;;7.30;38.04
77823;BME280;67013;49.730;17.292;2023-04-03T11:50:50;99086.85;;;7.17;38.50
77823;BME280;67013;49.730;17.292;2023-04-03T11:53:42;99087.48;;;7.07;39.32
77823;BME280;67013;49.730;17.292;2023-04-03T11:56:31;99085.16;;;7.09;40.30
77823;BME280;67013;49.730;17.292;2023-04-03T11:59:23;99087.45;;;7.12;40.73
77823;BME280;67013;49.730;17.292;2023-04-03T12:01:54;99090.91;;;7.19;40.46
77823;BME280;67013;49.730;17.292;2023-04-03T12:04:26;99087.09;;;7.34;38.65
77823;BME280;67013;49.730;17.292;2023-04-03T12:07:16;99078.96;;;7.40;37.44
77823;BME280;67013;49.730;17.292;2023-04-03T12:12:57;99085.02;;;7.29;38.62
77823;BME280;67013;49.730;17.292;2023-04-03T12:15:52;99077.12;;;7.36;40.10
77823;BME280;67013;49.730;17.292;2023-04-03T12:18:44;99081.48;;;7.45;40.04
77823;BME280;67013;49.730;17.292;2023-04-03T12:21:24;99075.38;;;7.54;38.41
77823;BME280;67013;49.730;17.292;2023-04-03T12:24:27;99066.41;;;7.56;36.52
77823;BME280;67013;49.730;17.292;2023-04-03T12:29:58;99068.34;;;7.38;37.42
77823;BME280;67013;49.730;17.292;2023-04-03T12:32:42;99069.77;;;7.27;36.75
77823;BME280;67013;49.730;17.292;2023-04-03T12:35:23;99064.39;;;7.13;36.75
77823;BME280;67013;49.730;17.292;2023-04-03T12:38:17;99061.27;;;7.06;36.88
77823;BME280;67013;49.730;17.292;2023-04-03T12:40:52;99060.59;;;7.09;37.25
77823;BME280;67013;49.730;17.292;2023-04-03T12:43:45;99056.70;;;7.25;37.04
77823;BME280;67013;49.730;17.292;2023-04-03T12:46:20;99059.35;;;7.35;37.59
77823;BME280;67013;49.730;17.292;2023-04-03T12:48:49;99059.29;;;7.43;38.50
77823;BME280;67013;49.730;17.292;2023-04-03T12:51:22;99061.73;;;7.50;38.77
77823;BME280;67013;49.730;17.292;2023-04-03T12:54:00;99060.61;;;7.55;38.95
77823;BME280;67013;49.730;17.292;2023-04-03T12:56:31;99056.11;;;7.61;39.32
77823;BME280;67013;49.730;17.292;2023-04-03T12:59:16;99064.15;;;7.63;38.08
77823;BME280;67013;49.730;17.292;2023-04-03T13:01:55;99057.31;;;7.48;36.53
77823;BME280;67013;49.730;17.292;2023-04-03T13:04:25;99060.30;;;7.33;36.27
77823;BME280;67013;49.730;17.292;2023-04-03T13:06:56;99057.17;;;7.19;36.16
77823;BME280;67013;49.730;17.292;2023-04-03T13:09:27;99061.19;;;7.12;38.00
77823;BME280;67013;49.730;17.292;2023-04-03T13:12:01;99065.30;;;7.12;39.06
77823;BME280;67013;49.730;17.292;2023-04-03T13:14:32;99068.51;;;7.10;39.10
77823;BME280;67013;49.730;17.292;2023-04-03T13:17:06;99065.26;;;7.05;38.59
77823;BME280;67013;49.730;17.292;2023-04-03T13:19:40;99068.34;;;7.02;38.59
77823;BME280;67013;49.730;17.292;2023-04-03T13:22:22;99065.42;;;7.02;38.40
77823;BME280;67013;49.730;17.292;2023-04-03T13:24:56;99062.99;;;6.99;38.31
77823;BME280;67013;49.730;17.292;2023-04-03T13:27:28;99062.89;;;6.94;38.16
77823;BME280;67013;49.730;17.292;2023-04-03T13:30:01;99061.21;;;6.92;38.89
77823;BME280;67013;49.730;17.292;2023-04-03T13:32:34;99063.27;;;6.97;39.10
77823;BME280;67013;49.730;17.292;2023-04-03T13:35:32;99055.02;;;7.02;39.34
77823;BME280;67013;49.730;17.292;2023-04-03T13:38:04;99060.13;;;7.00;39.37